sensor_id;sensor_type;location;lat;lon;timestamp;temperature;humidity
51853;DHT22;37894;53.172;6.598;2023-03-04T00:01:54;5.90;99.90
51853;DHT22;37894;53.172;6.598;2023-03-04T00:04:20;6.00;99.90
51853;DHT22;37894;53.172;6.598;2023-03-04T00:06:45;6.00;99.90
51853;DHT22;37894;53.172;6.598;2023-03-04T00:09:11;5.50;99.90
51853;DHT22;37894;53.172;6.598;2023-03-04T00:11:37;6.30;99.90
51853;DHT22;37894;53.172;6.598;2023-03-04T00:14:02;5.90;99.90
51853;DHT22;37894;53.172;6.598;2023-03-04T00:16:28;5.50;99.90
51853;DHT22;37894;53.172;6.598;2023-03-04T00:18:55;6.60;99.90
51853;DHT22;37894;53.172;6.598;2023-03-04T00:21:21;6.00;99.90
51853;DHT22;37894;53.172;6.598;2023-03-04T00:23:47;6.30;99.90
51853;DHT22;37894;53.172;6.598;2023-03-04T00:26:14;5.80;99.90
51853;DHT22;37894;53.172;6.598;2023-03-04T00:31:07;6.80;99.90
51853;DHT22;37894;53.172;6.598;2023-03-04T00:33:33;6.10;99.90
51853;DHT22;37894;53.172;6.598;2023-03-04T00:40:52;6.40;99.90
51853;DHT22;37894;53.172;6.598;2023-03-04T00:43:17;6.20;99.90
51853;DHT22;37894;53.172;6.598;2023-03-04T00:45:43;6.10;99.90
51853;DHT22;37894;53.172;6.598;2023-03-04T00:48:09;6.20;99.90
51853;DHT22;37894;53.172;6.598;2023-03-04T00:50:36;5.90;99.90
51853;DHT22;37894;53.172;6.598;2023-03-04T00:53:02;6.20;99.90
51853;DHT22;37894;53.172;6.598;2023-03-04T00:55:28;5.90;99.90
51853;DHT22;37894;53.172;6.598;2023-03-04T01:00:20;5.70;99.90
51853;DHT22;37894;53.172;6.598;2023-03-04T01:02:46;6.00;99.90
51853;DHT22;37894;53.172;6.598;2023-03-04T01:05:12;6.80;99.90
51853;DHT22;37894;53.172;6.598;2023-03-04T01:07:38;5.90;99.90
51853;DHT22;37894;53.172;6.598;2023-03-04T01:10:05;6.00;99.90
51853;DHT22;37894;53.172;6.598;2023-03-04T01:12:31;6.30;99.90
51853;DHT22;37894;53.172;6.598;2023-03-04T01:17:23;5.70;99.90
51853;DHT22;37894;53.172;6.598;2023-03-04T01:19:49;5.40;99.90
51853;DHT22;37894;53.172;6.598;2023-03-04T01:22:14;6.10;99.90
51853;DHT22;37894;53.172;6.598;2023-03-04T01:24:41;6.00;99.90
51853;DHT22;37894;53.172;6.598;2023-03-04T01:27:07;5.80;99.90
51853;DHT22;37894;53.172;6.598;2023-03-04T01:29:33;6.10;99.90
51853;DHT22;37894;53.172;6.598;2023-03-04T01:36:51;6.90;99.90
51853;DHT22;37894;53.172;6.598;2023-03-04T01:39:16;6.60;99.90
51853;DHT22;37894;53.172;6.598;2023-03-04T01:41:42;6.90;99.90
51853;DHT22;37894;53.172;6.598;2023-03-04T01:44:08;6.10;99.90
51853;DHT22;37894;53.172;6.598;2023-03-04T01:46:35;6.00;99.90
51853;DHT22;37894;53.172;6.598;2023-03-04T01:51:27;5.90;99.90
51853;DHT22;37894;53.172;6.598;2023-03-04T01:53:53;6.00;99.90
51853;DHT22;37894;53.172;6.598;2023-03-04T01:56:29;5.20;99.90
51853;DHT22;37894;53.172;6.598;2023-03-04T01:59:25;5.90;99.90
51853;DHT22;37894;53.172;6.598;2023-03-04T02:02:10;6.00;99.90
51853;DHT22;37894;53.172;6.598;2023-03-04T02:07:03;5.80;99.90
51853;DHT22;37894;53.172;6.598;2023-03-04T02:09:30;5.80;99.90
51853;DHT22;37894;53.172;6.598;2023-03-04T02:11:56;5.80;99.90
51853;DHT22;37894;53.172;6.598;2023-03-04T02:14:22;5.60;99.90
51853;DHT22;37894;53.172;6.598;2023-03-04T02:16:49;5.80;99.90
51853;DHT22;37894;53.172;6.598;2023-03-04T02:19:38;5.70;99.90
51853;DHT22;37894;53.172;6.598;2023-03-04T02:22:06;5.50;99.90
51853;DHT22;37894;53.172;6.598;2023-03-04T02:24:42;5.60;99.90
51853;DHT22;37894;53.172;6.598;2023-03-04T02:29:36;5.90;99.90
51853;DHT22;37894;53.172;6.598;2023-03-04T02:34:30;5.70;99.90
51853;DHT22;37894;53.172;6.598;2023-03-04T02:36:58;5.30;99.90
51853;DHT22;37894;53.172;6.598;2023-03-04T02:39:32;5.30;99.90
51853;DHT22;37894;53.172;6.598;2023-03-04T02:41:58;5.90;99.90
51853;DHT22;37894;53.172;6.598;2023-03-04T02:44:29;5.50;99.90
51853;DHT22;37894;53.172;6.598;2023-03-04T02:46:56;5.70;99.90
51853;DHT22;37894;53.172;6.598;2023-03-04T02:49:23;5.70;99.90
51853;DHT22;37894;53.172;6.598;2023-03-04T02:52:01;6.00;99.90
51853;DHT22;37894;53.172;6.598;2023-03-04T02:54:28;6.10;99.90
51853;DHT22;37894;53.172;6.598;2023-03-04T02:56:56;5.90;99.90
51853;DHT22;37894;53.172;6.598;2023-03-04T02:59:22;6.10;99.90
51853;DHT22;37894;53.172;6.598;2023-03-04T03:01:48;5.90;99.90
51853;DHT22;37894;53.172;6.598;2023-03-04T03:04:15;5.80;99.90
51853;DHT22;37894;53.172;6.598;2023-03-04T03:06:41;4.90;99.90
51853;DHT22;37894;53.172;6.598;2023-03-04T03:09:06;6.00;99.90
51853;DHT22;37894;53.172;6.598;2023-03-04T03:11:33;5.30;99.90
51853;DHT22;37894;53.172;6.598;2023-03-04T03:18:51;6.20;99.90
51853;DHT22;37894;53.172;6.598;2023-03-04T03:21:17;6.00;99.90
51853;DHT22;37894;53.172;6.598;2023-03-04T03:23:43;6.00;99.90
51853;DHT22;37894;53.172;6.598;2023-03-04T03:26:09;5.50;99.90
51853;DHT22;37894;53.172;6.598;2023-03-04T03:28:35;5.20;99.90
51853;DHT22;37894;53.172;6.598;2023-03-04T03:35:52;6.20;99.90
51853;DHT22;37894;53.172;6.598;2023-03-04T03:38:18;5.80;99.90
51853;DHT22;37894;53.172;6.598;2023-03-04T03:40:44;5.60;99.90
51853;DHT22;37894;53.172;6.598;2023-03-04T03:43:10;6.10;99.90
51853;DHT22;37894;53.172;6.598;2023-03-04T03:48:02;5.40;99.90
51853;DHT22;37894;53.172;6.598;2023-03-04T03:50:28;5.90;99.90
51853;DHT22;37894;53.172;6.598;2023-03-04T03:52:54;5.20;99.90
51853;DHT22;37894;53.172;6.598;2023-03-04T03:55:20;6.00;99.90
51853;DHT22;37894;53.172;6.598;2023-03-04T03:57:46;6.00;99.90
51853;DHT22;37894;53.172;6.598;2023-03-04T04:00:13;6.90;99.90
51853;DHT22;37894;53.172;6.598;2023-03-04T04:02:39;5.40;99.90
51853;DHT22;37894;53.172;6.598;2023-03-04T04:05:06;6.10;99.90
51853;DHT22;37894;53.172;6.598;2023-03-04T04:07:32;5.90;99.90
51853;DHT22;37894;53.172;6.598;2023-03-04T04:09:58;5.80;99.90
51853;DHT22;37894;53.172;6.598;2023-03-04T04:12:24;6.00;99.90
51853;DHT22;37894;53.172;6.598;2023-03-04T04:17:16;5.90;99.90
51853;DHT22;37894;53.172;6.598;2023-03-04T04:19:41;6.00;99.90
51853;DHT22;37894;53.172;6.598;2023-03-04T04:22:13;6.00;99.90
51853;DHT22;37894;53.172;6.598;2023-03-04T04:24:39;5.40;99.90
51853;DHT22;37894;53.172;6.598;2023-03-04T04:27:05;5.70;99.90
51853;DHT22;37894;53.172;6.598;2023-03-04T04:29:30;5.80;99.90
51853;DHT22;37894;53.172;6.598;2023-03-04T04:34:23;5.70;99.90
51853;DHT22;37894;53.172;6.598;2023-03-04T04:36:49;5.90;99.90
51853;DHT22;37894;53.172;6.598;2023-03-04T04:39:15;5.60;99.90
51853;DHT22;37894;53.172;6.598;2023-03-04T04:41:42;6.30;99.90
51853;DHT22;37894;53.172;6.598;2023-03-04T04:44:08;6.00;99.90
51853;DHT22;37894;53.172;6.598;2023-03-04T04:46:35;5.90;99.90
51853;DHT22;37894;53.172;6.598;2023-03-04T04:49:01;6.00;99.90
51853;DHT22;37894;53.172;6.598;2023-03-04T04:51:27;5.70;99.90
51853;DHT22;37894;53.172;6.598;2023-03-04T04:53:53;5.90;99.90
51853;DHT22;37894;53.172;6.598;2023-03-04T04:56:21;6.90;99.90
51853;DHT22;37894;53.172;6.598;2023-03-04T04:58:48;5.80;99.90
51853;DHT22;37894;53.172;6.598;2023-03-04T05:01:14;5.80;99.90
51853;DHT22;37894;53.172;6.598;2023-03-04T05:03:40;5.70;99.90
51853;DHT22;37894;53.172;6.598;2023-03-04T05:06:08;5.50;99.90
51853;DHT22;37894;53.172;6.598;2023-03-04T05:11:01;5.50;99.90
51853;DHT22;37894;53.172;6.598;2023-03-04T05:15:54;6.70;99.90
51853;DHT22;37894;53.172;6.598;2023-03-04T05:18:21;5.10;99.90
51853;DHT22;37894;53.172;6.598;2023-03-04T05:20:52;6.00;99.90
51853;DHT22;37894;53.172;6.598;2023-03-04T05:23:17;6.50;99.90
51853;DHT22;37894;53.172;6.598;2023-03-04T05:28:09;5.70;99.90
51853;DHT22;37894;53.172;6.598;2023-03-04T05:30:38;5.50;99.90
51853;DHT22;37894;53.172;6.598;2023-03-04T05:35:31;5.50;99.90
51853;DHT22;37894;53.172;6.598;2023-03-04T05:42:50;5.50;99.90
51853;DHT22;37894;53.172;6.598;2023-03-04T05:45:16;5.20;99.90
51853;DHT22;37894;53.172;6.598;2023-03-04T05:47:42;6.80;99.90
51853;DHT22;37894;53.172;6.598;2023-03-04T05:50:08;5.60;99.90
51853;DHT22;37894;53.172;6.598;2023-03-04T05:52:34;5.90;99.90
51853;DHT22;37894;53.172;6.598;2023-03-04T05:55:00;6.70;99.90
51853;DHT22;37894;53.172;6.598;2023-03-04T05:57:25;5.80;99.90
51853;DHT22;37894;53.172;6.598;2023-03-04T05:59:51;5.20;99.90
51853;DHT22;37894;53.172;6.598;2023-03-04T06:02:17;5.00;99.90
51853;DHT22;37894;53.172;6.598;2023-03-04T06:04:42;5.60;99.90
51853;DHT22;37894;53.172;6.598;2023-03-04T06:07:08;6.30;99.90
51853;DHT22;37894;53.172;6.598;2023-03-04T06:09:34;5.60;99.90
51853;DHT22;37894;53.172;6.598;2023-03-04T06:11:59;5.40;99.90
51853;DHT22;37894;53.172;6.598;2023-03-04T06:14:25;5.80;99.90
51853;DHT22;37894;53.172;6.598;2023-03-04T06:16:51;5.30;99.90
51853;DHT22;37894;53.172;6.598;2023-03-04T06:19:16;5.40;99.90
51853;DHT22;37894;53.172;6.598;2023-03-04T06:21:42;5.60;99.90
51853;DHT22;37894;53.172;6.598;2023-03-04T06:24:08;5.30;99.90
51853;DHT22;37894;53.172;6.598;2023-03-04T06:26:33;5.60;99.90
51853;DHT22;37894;53.172;6.598;2023-03-04T06:28:59;6.70;99.90
51853;DHT22;37894;53.172;6.598;2023-03-04T06:33:51;5.70;99.90
51853;DHT22;37894;53.172;6.598;2023-03-04T06:36:17;5.70;99.90
51853;DHT22;37894;53.172;6.598;2023-03-04T06:38:42;5.70;99.90
51853;DHT22;37894;53.172;6.598;2023-03-04T06:41:10;4.80;99.90
51853;DHT22;37894;53.172;6.598;2023-03-04T06:43:36;5.70;99.90
51853;DHT22;37894;53.172;6.598;2023-03-04T06:46:02;6.70;99.90
51853;DHT22;37894;53.172;6.598;2023-03-04T06:48:28;6.20;99.90
51853;DHT22;37894;53.172;6.598;2023-03-04T06:50:54;5.10;99.90
51853;DHT22;37894;53.172;6.598;2023-03-04T06:55:46;5.80;99.90
51853;DHT22;37894;53.172;6.598;2023-03-04T06:58:12;5.50;99.90
51853;DHT22;37894;53.172;6.598;2023-03-04T07:00:38;5.70;99.90
51853;DHT22;37894;53.172;6.598;2023-03-04T07:03:04;5.30;99.90
51853;DHT22;37894;53.172;6.598;2023-03-04T07:10:22;5.70;99.90
51853;DHT22;37894;53.172;6.598;2023-03-04T07:12:47;6.70;99.90
51853;DHT22;37894;53.172;6.598;2023-03-04T07:15:13;5.60;99.90
51853;DHT22;37894;53.172;6.598;2023-03-04T07:17:39;5.90;99.90
51853;DHT22;37894;53.172;6.598;2023-03-04T07:20:05;5.80;99.90
51853;DHT22;37894;53.172;6.598;2023-03-04T07:22:31;6.10;99.90
51853;DHT22;37894;53.172;6.598;2023-03-04T07:24:56;5.60;99.90
51853;DHT22;37894;53.172;6.598;2023-03-04T07:27:22;6.00;99.90
51853;DHT22;37894;53.172;6.598;2023-03-04T07:29:48;5.00;99.90
51853;DHT22;37894;53.172;6.598;2023-03-04T07:32:14;5.50;99.90
51853;DHT22;37894;53.172;6.598;2023-03-04T07:37:06;5.50;99.90
51853;DHT22;37894;53.172;6.598;2023-03-04T07:41:58;6.00;99.90
51853;DHT22;37894;53.172;6.598;2023-03-04T07:51:42;6.80;99.90
51853;DHT22;37894;53.172;6.598;2023-03-04T07:54:08;5.90;99.90
51853;DHT22;37894;53.172;6.598;2023-03-04T07:56:34;6.20;99.90
51853;DHT22;37894;53.172;6.598;2023-03-04T07:59:00;5.90;99.90
51853;DHT22;37894;53.172;6.598;2023-03-04T08:01:34;5.80;99.90
51853;DHT22;37894;53.172;6.598;2023-03-04T08:04:02;6.00;99.90
51853;DHT22;37894;53.172;6.598;2023-03-04T08:06:28;6.00;99.90
51853;DHT22;37894;53.172;6.598;2023-03-04T08:08:57;7.40;99.90
51853;DHT22;37894;53.172;6.598;2023-03-04T08:11:23;6.40;99.90
51853;DHT22;37894;53.172;6.598;2023-03-04T08:13:49;5.80;99.90
51853;DHT22;37894;53.172;6.598;2023-03-04T08:16:19;5.90;99.90
51853;DHT22;37894;53.172;6.598;2023-03-04T08:18:48;6.10;99.90
51853;DHT22;37894;53.172;6.598;2023-03-04T08:21:15;5.90;99.90
51853;DHT22;37894;53.172;6.598;2023-03-04T08:23:43;7.00;99.90
51853;DHT22;37894;53.172;6.598;2023-03-04T08:26:11;6.20;99.90
51853;DHT22;37894;53.172;6.598;2023-03-04T08:28:37;5.40;99.90
51853;DHT22;37894;53.172;6.598;2023-03-04T08:33:30;5.70;99.90
51853;DHT22;37894;53.172;6.598;2023-03-04T08:35:56;5.70;99.90
51853;DHT22;37894;53.172;6.598;2023-03-04T08:38:22;5.90;99.90
51853;DHT22;37894;53.172;6.598;2023-03-04T08:40:53;6.70;99.90
51853;DHT22;37894;53.172;6.598;2023-03-04T08:45:45;5.90;99.90
51853;DHT22;37894;53.172;6.598;2023-03-04T08:48:11;6.20;99.90
51853;DHT22;37894;53.172;6.598;2023-03-04T08:50:36;5.90;99.90
51853;DHT22;37894;53.172;6.598;2023-03-04T08:57:54;6.10;99.90
51853;DHT22;37894;53.172;6.598;2023-03-04T09:00:20;6.90;99.90
51853;DHT22;37894;53.172;6.598;2023-03-04T09:05:12;5.20;99.90
51853;DHT22;37894;53.172;6.598;2023-03-04T09:07:38;6.20;99.90
51853;DHT22;37894;53.172;6.598;2023-03-04T09:10:04;6.40;99.90
51853;DHT22;37894;53.172;6.598;2023-03-04T09:12:30;7.10;99.90
51853;DHT22;37894;53.172;6.598;2023-03-04T09:17:22;7.20;99.90
51853;DHT22;37894;53.172;6.598;2023-03-04T09:19:48;6.30;99.90
51853;DHT22;37894;53.172;6.598;2023-03-04T09:22:14;6.10;99.90
51853;DHT22;37894;53.172;6.598;2023-03-04T09:24:39;6.50;99.90
51853;DHT22;37894;53.172;6.598;2023-03-04T09:27:05;6.40;99.90
51853;DHT22;37894;53.172;6.598;2023-03-04T09:34:23;6.40;99.90
51853;DHT22;37894;53.172;6.598;2023-03-04T09:36:48;6.60;99.90
51853;DHT22;37894;53.172;6.598;2023-03-04T09:39:14;6.50;99.90
51853;DHT22;37894;53.172;6.598;2023-03-04T09:41:44;6.30;99.90
51853;DHT22;37894;53.172;6.598;2023-03-04T09:44:35;6.50;99.90
51853;DHT22;37894;53.172;6.598;2023-03-04T09:47:21;6.80;99.90
51853;DHT22;37894;53.172;6.598;2023-03-04T09:49:58;7.70;99.90
51853;DHT22;37894;53.172;6.598;2023-03-04T09:55:21;6.80;99.90
51853;DHT22;37894;53.172;6.598;2023-03-04T10:01:02;6.70;99.90
51853;DHT22;37894;53.172;6.598;2023-03-04T10:03:56;6.40;99.90
51853;DHT22;37894;53.172;6.598;2023-03-04T10:06:23;6.70;99.90
51853;DHT22;37894;53.172;6.598;2023-03-04T10:09:05;6.90;99.90
51853;DHT22;37894;53.172;6.598;2023-03-04T10:12:05;7.10;99.90
51853;DHT22;37894;53.172;6.598;2023-03-04T10:14:48;6.80;99.90
51853;DHT22;37894;53.172;6.598;2023-03-04T10:17:21;8.10;99.90
51853;DHT22;37894;53.172;6.598;2023-03-04T10:20:22;7.30;99.90
51853;DHT22;37894;53.172;6.598;2023-03-04T10:22:52;6.80;99.90
51853;DHT22;37894;53.172;6.598;2023-03-04T10:25:29;7.10;99.90
51853;DHT22;37894;53.172;6.598;2023-03-04T10:28:00;7.10;99.90
51853;DHT22;37894;53.172;6.598;2023-03-04T10:33:12;7.10;99.90
51853;DHT22;37894;53.172;6.598;2023-03-04T10:38:05;7.20;99.90
51853;DHT22;37894;53.172;6.598;2023-03-04T10:40:38;7.10;99.90
51853;DHT22;37894;53.172;6.598;2023-03-04T10:43:03;7.10;99.90
51853;DHT22;37894;53.172;6.598;2023-03-04T10:45:37;7.20;99.90
51853;DHT22;37894;53.172;6.598;2023-03-04T10:48:04;7.60;99.90
51853;DHT22;37894;53.172;6.598;2023-03-04T10:50:30;7.20;99.90
51853;DHT22;37894;53.172;6.598;2023-03-04T10:52:57;7.80;99.90
51853;DHT22;37894;53.172;6.598;2023-03-04T10:55:43;7.30;99.90
51853;DHT22;37894;53.172;6.598;2023-03-04T10:58:14;7.30;99.90
51853;DHT22;37894;53.172;6.598;2023-03-04T11:00:42;7.50;99.90
51853;DHT22;37894;53.172;6.598;2023-03-04T11:05:49;7.40;99.90
51853;DHT22;37894;53.172;6.598;2023-03-04T11:08:22;7.40;99.90
51853;DHT22;37894;53.172;6.598;2023-03-04T11:10:48;7.30;99.90
51853;DHT22;37894;53.172;6.598;2023-03-04T11:16:03;7.00;99.90
51853;DHT22;37894;53.172;6.598;2023-03-04T11:18:49;7.70;99.90
51853;DHT22;37894;53.172;6.598;2023-03-04T11:21:26;7.30;99.90
51853;DHT22;37894;53.172;6.598;2023-03-04T11:26:41;7.50;99.90
51853;DHT22;37894;53.172;6.598;2023-03-04T11:29:46;7.60;99.90
51853;DHT22;37894;53.172;6.598;2023-03-04T11:32:20;7.80;99.90
51853;DHT22;37894;53.172;6.598;2023-03-04T11:40:50;7.60;99.90
51853;DHT22;37894;53.172;6.598;2023-03-04T11:43:35;7.80;99.90
51853;DHT22;37894;53.172;6.598;2023-03-04T11:51:21;7.90;99.90
51853;DHT22;37894;53.172;6.598;2023-03-04T11:56:44;8.80;99.90
51853;DHT22;37894;53.172;6.598;2023-03-04T12:09:31;8.70;99.90
51853;DHT22;37894;53.172;6.598;2023-03-04T12:25:43;9.00;99.90
51853;DHT22;37894;53.172;6.598;2023-03-04T12:33:53;8.10;99.90
51853;DHT22;37894;53.172;6.598;2023-03-04T12:39:32;8.10;99.90
51853;DHT22;37894;53.172;6.598;2023-03-04T12:44:45;8.30;99.90
51853;DHT22;37894;53.172;6.598;2023-03-04T12:47:29;8.30;99.90
51853;DHT22;37894;53.172;6.598;2023-03-04T12:55:37;8.40;99.90
51853;DHT22;37894;53.172;6.598;2023-03-04T12:58:26;8.10;99.90
51853;DHT22;37894;53.172;6.598;2023-03-04T13:01:16;8.40;99.90
51853;DHT22;37894;53.172;6.598;2023-03-04T13:03:46;8.10;99.90
51853;DHT22;37894;53.172;6.598;2023-03-04T13:14:05;8.80;99.90
51853;DHT22;37894;53.172;6.598;2023-03-04T13:16:43;8.00;99.90
51853;DHT22;37894;53.172;6.598;2023-03-04T13:27:49;7.80;99.90
51853;DHT22;37894;53.172;6.598;2023-03-04T13:38:22;7.50;99.90
51853;DHT22;37894;53.172;6.598;2023-03-04T13:46:55;7.70;99.90
51853;DHT22;37894;53.172;6.598;2023-03-04T13:49:22;7.60;99.90
51853;DHT22;37894;53.172;6.598;2023-03-04T13:51:49;7.10;99.90
51853;DHT22;37894;53.172;6.598;2023-03-04T13:56:48;7.90;99.90
51853;DHT22;37894;53.172;6.598;2023-03-04T13:59:42;7.90;99.90
51853;DHT22;37894;53.172;6.598;2023-03-04T14:02:11;7.70;99.90
51853;DHT22;37894;53.172;6.598;2023-03-04T14:04:45;7.80;99.90
51853;DHT22;37894;53.172;6.598;2023-03-04T14:07:31;7.60;99.90
51853;DHT22;37894;53.172;6.598;2023-03-04T14:09:58;8.50;99.90
51853;DHT22;37894;53.172;6.598;2023-03-04T14:12:26;7.60;99.90
51853;DHT22;37894;53.172;6.598;2023-03-04T14:14:55;8.40;99.90
51853;DHT22;37894;53.172;6.598;2023-03-04T14:17:26;7.60;99.90
51853;DHT22;37894;53.172;6.598;2023-03-04T14:19:52;7.50;99.90
51853;DHT22;37894;53.172;6.598;2023-03-04T14:24:56;7.60;99.90
51853;DHT22;37894;53.172;6.598;2023-03-04T14:29:59;7.20;99.90
51853;DHT22;37894;53.172;6.598;2023-03-04T14:32:27;7.30;99.90
51853;DHT22;37894;53.172;6.598;2023-03-04T14:34:58;7.30;99.90
51853;DHT22;37894;53.172;6.598;2023-03-04T14:37:30;6.60;99.90
51853;DHT22;37894;53.172;6.598;2023-03-04T14:39:59;7.10;99.90
51853;DHT22;37894;53.172;6.598;2023-03-04T14:42:39;6.90;99.90
51853;DHT22;37894;53.172;6.598;2023-03-04T14:45:10;6.50;99.90
51853;DHT22;37894;53.172;6.598;2023-03-04T14:47:40;8.00;99.90
51853;DHT22;37894;53.172;6.598;2023-03-04T14:50:14;6.30;99.90
51853;DHT22;37894;53.172;6.598;2023-03-04T14:52:43;7.00;99.90
51853;DHT22;37894;53.172;6.598;2023-03-04T14:55:26;6.90;99.90
51853;DHT22;37894;53.172;6.598;2023-03-04T14:58:15;6.80;99.90
51853;DHT22;37894;53.172;6.598;2023-03-04T15:00:44;6.80;99.90
51853;DHT22;37894;53.172;6.598;2023-03-04T15:03:22;7.00;99.90
51853;DHT22;37894;53.172;6.598;2023-03-04T15:05:49;6.90;99.90
51853;DHT22;37894;53.172;6.598;2023-03-04T15:08:27;7.00;99.90
51853;DHT22;37894;53.172;6.598;2023-03-04T15:10:58;5.70;99.90
51853;DHT22;37894;53.172;6.598;2023-03-04T15:14:35;6.70;99.90
51853;DHT22;37894;53.172;6.598;2023-03-04T15:16:55;6.60;99.90
51853;DHT22;37894;53.172;6.598;2023-03-04T15:19:28;6.80;99.90
51853;DHT22;37894;53.172;6.598;2023-03-04T15:22:06;6.70;99.90
51853;DHT22;37894;53.172;6.598;2023-03-04T15:24:32;6.60;99.90
51853;DHT22;37894;53.172;6.598;2023-03-04T15:29:24;6.50;99.90
51853;DHT22;37894;53.172;6.598;2023-03-04T15:34:18;6.40;99.90
51853;DHT22;37894;53.172;6.598;2023-03-04T15:36:46;6.40;99.90
51853;DHT22;37894;53.172;6.598;2023-03-04T15:39:16;6.40;99.90
51853;DHT22;37894;53.172;6.598;2023-03-04T15:41:42;6.10;99.90
51853;DHT22;37894;53.172;6.598;2023-03-04T15:46:36;5.60;99.90
51853;DHT22;37894;53.172;6.598;2023-03-04T15:49:02;6.60;99.90
51853;DHT22;37894;53.172;6.598;2023-03-04T15:53:59;5.40;99.90
51853;DHT22;37894;53.172;6.598;2023-03-04T15:56:30;6.40;99.90
51853;DHT22;37894;53.172;6.598;2023-03-04T15:59:00;5.30;99.90
51853;DHT22;37894;53.172;6.598;2023-03-04T16:06:19;6.00;99.90
51853;DHT22;37894;53.172;6.598;2023-03-04T16:08:49;6.00;99.90
51853;DHT22;37894;53.172;6.598;2023-03-04T16:11:22;6.00;99.90
51853;DHT22;37894;53.172;6.598;2023-03-04T16:16:14;5.50;99.90
51853;DHT22;37894;53.172;6.598;2023-03-04T16:21:12;5.80;99.90
51853;DHT22;37894;53.172;6.598;2023-03-04T16:23:41;6.00;99.90
51853;DHT22;37894;53.172;6.598;2023-03-04T16:26:16;5.60;99.90
51853;DHT22;37894;53.172;6.598;2023-03-04T16:28:42;6.00;99.90
51853;DHT22;37894;53.172;6.598;2023-03-04T16:31:10;6.30;99.90
51853;DHT22;37894;53.172;6.598;2023-03-04T16:33:37;5.50;99.90
51853;DHT22;37894;53.172;6.598;2023-03-04T16:36:03;6.00;99.90
51853;DHT22;37894;53.172;6.598;2023-03-04T16:38:30;5.80;99.90
51853;DHT22;37894;53.172;6.598;2023-03-04T16:40:58;5.80;99.90
51853;DHT22;37894;53.172;6.598;2023-03-04T16:43:26;5.10;99.90
51853;DHT22;37894;53.172;6.598;2023-03-04T16:50:45;5.80;99.90
51853;DHT22;37894;53.172;6.598;2023-03-04T16:53:35;5.80;99.90
51853;DHT22;37894;53.172;6.598;2023-03-04T16:56:13;5.90;99.90
51853;DHT22;37894;53.172;6.598;2023-03-04T16:58:40;5.70;99.90
51853;DHT22;37894;53.172;6.598;2023-03-04T17:03:32;5.90;99.90
51853;DHT22;37894;53.172;6.598;2023-03-04T17:05:58;5.00;99.90
51853;DHT22;37894;53.172;6.598;2023-03-04T17:13:16;5.50;99.90
51853;DHT22;37894;53.172;6.598;2023-03-04T17:15:42;5.50;99.90
51853;DHT22;37894;53.172;6.598;2023-03-04T17:18:09;5.50;99.90
51853;DHT22;37894;53.172;6.598;2023-03-04T17:23:01;5.10;99.90
51853;DHT22;37894;53.172;6.598;2023-03-04T17:27:53;5.20;99.90
51853;DHT22;37894;53.172;6.598;2023-03-04T17:30:18;4.90;99.90
51853;DHT22;37894;53.172;6.598;2023-03-04T17:35:10;5.80;99.90
51853;DHT22;37894;53.172;6.598;2023-03-04T17:37:37;5.00;99.90
51853;DHT22;37894;53.172;6.598;2023-03-04T17:40:05;5.70;99.90
51853;DHT22;37894;53.172;6.598;2023-03-04T17:42:31;5.00;99.90
51853;DHT22;37894;53.172;6.598;2023-03-04T17:47:23;4.90;99.90
51853;DHT22;37894;53.172;6.598;2023-03-04T17:54:44;4.90;99.90
51853;DHT22;37894;53.172;6.598;2023-03-04T17:59:36;4.80;99.90
51853;DHT22;37894;53.172;6.598;2023-03-04T18:02:03;4.50;99.90
51853;DHT22;37894;53.172;6.598;2023-03-04T18:06:56;4.70;99.90
51853;DHT22;37894;53.172;6.598;2023-03-04T18:09:21;4.90;99.90
51853;DHT22;37894;53.172;6.598;2023-03-04T18:11:47;4.10;99.90
51853;DHT22;37894;53.172;6.598;2023-03-04T18:16:40;5.00;99.90
51853;DHT22;37894;53.172;6.598;2023-03-04T18:19:07;4.00;99.90
51853;DHT22;37894;53.172;6.598;2023-03-04T18:21:34;5.00;99.90
51853;DHT22;37894;53.172;6.598;2023-03-04T18:23:59;4.80;99.90
51853;DHT22;37894;53.172;6.598;2023-03-04T18:28:52;4.70;99.90
51853;DHT22;37894;53.172;6.598;2023-03-04T18:31:20;4.90;99.90
51853;DHT22;37894;53.172;6.598;2023-03-04T18:33:46;4.60;99.90
51853;DHT22;37894;53.172;6.598;2023-03-04T18:36:12;5.00;99.90
51853;DHT22;37894;53.172;6.598;2023-03-04T18:41:07;4.90;99.90
51853;DHT22;37894;53.172;6.598;2023-03-04T18:43:34;4.90;99.90
51853;DHT22;37894;53.172;6.598;2023-03-04T18:48:33;4.90;99.90
51853;DHT22;37894;53.172;6.598;2023-03-04T18:51:00;4.90;99.90
51853;DHT22;37894;53.172;6.598;2023-03-04T18:53:28;4.70;99.90
51853;DHT22;37894;53.172;6.598;2023-03-04T18:55:57;4.70;99.90
51853;DHT22;37894;53.172;6.598;2023-03-04T18:58:26;4.70;99.90
51853;DHT22;37894;53.172;6.598;2023-03-04T19:00:54;4.80;99.90
51853;DHT22;37894;53.172;6.598;2023-03-04T19:30:08;4.40;99.90
51853;DHT22;37894;53.172;6.598;2023-03-04T19:32:33;3.70;99.90
51853;DHT22;37894;53.172;6.598;2023-03-04T19:34:59;4.80;99.90
51853;DHT22;37894;53.172;6.598;2023-03-04T19:37:25;4.50;99.90
51853;DHT22;37894;53.172;6.598;2023-03-04T19:44:44;4.50;99.90
51853;DHT22;37894;53.172;6.598;2023-03-04T19:47:10;4.10;99.90
51853;DHT22;37894;53.172;6.598;2023-03-04T19:52:02;4.20;99.90
51853;DHT22;37894;53.172;6.598;2023-03-04T19:56:54;4.20;99.90
51853;DHT22;37894;53.172;6.598;2023-03-04T20:01:46;4.30;99.90
51853;DHT22;37894;53.172;6.598;2023-03-04T20:04:14;4.00;99.90
51853;DHT22;37894;53.172;6.598;2023-03-04T20:06:45;3.30;99.90
51853;DHT22;37894;53.172;6.598;2023-03-04T20:09:12;4.10;99.90
51853;DHT22;37894;53.172;6.598;2023-03-04T20:11:39;4.20;99.90
51853;DHT22;37894;53.172;6.598;2023-03-04T20:16:33;4.10;99.90
51853;DHT22;37894;53.172;6.598;2023-03-04T20:21:29;4.10;99.90
51853;DHT22;37894;53.172;6.598;2023-03-04T20:23:56;4.30;99.90
51853;DHT22;37894;53.172;6.598;2023-03-04T20:26:22;5.00;99.90
51853;DHT22;37894;53.172;6.598;2023-03-04T20:28:49;3.50;99.90
51853;DHT22;37894;53.172;6.598;2023-03-04T20:31:29;4.20;99.90
51853;DHT22;37894;53.172;6.598;2023-03-04T20:33:57;4.30;99.90
51853;DHT22;37894;53.172;6.598;2023-03-04T20:36:25;4.30;99.90
51853;DHT22;37894;53.172;6.598;2023-03-04T20:38:51;3.90;99.90
51853;DHT22;37894;53.172;6.598;2023-03-04T20:43:45;3.50;99.90
51853;DHT22;37894;53.172;6.598;2023-03-04T20:48:59;4.10;99.90
51853;DHT22;37894;53.172;6.598;2023-03-04T20:51:25;4.10;99.90
51853;DHT22;37894;53.172;6.598;2023-03-04T20:53:51;3.20;99.90
51853;DHT22;37894;53.172;6.598;2023-03-04T20:56:19;4.00;99.90
51853;DHT22;37894;53.172;6.598;2023-03-04T20:58:46;4.20;99.90
51853;DHT22;37894;53.172;6.598;2023-03-04T21:01:13;4.20;99.90
51853;DHT22;37894;53.172;6.598;2023-03-04T21:06:09;3.80;99.90
51853;DHT22;37894;53.172;6.598;2023-03-04T21:08:35;4.10;99.90
51853;DHT22;37894;53.172;6.598;2023-03-04T21:11:01;4.10;99.90
51853;DHT22;37894;53.172;6.598;2023-03-04T21:18:24;4.20;99.90
51853;DHT22;37894;53.172;6.598;2023-03-04T21:20:50;3.90;99.90
51853;DHT22;37894;53.172;6.598;2023-03-04T21:23:17;4.10;99.90
51853;DHT22;37894;53.172;6.598;2023-03-04T21:25:44;4.20;99.90